createdAt,value
2019-04-23T00:01:49.272Z,47.60
2019-04-23T00:04:20.131Z,47.90
2019-04-23T00:07:09.262Z,47.90
2019-04-23T00:09:46.692Z,48.30
2019-04-23T00:12:43.798Z,48.30
2019-04-23T00:15:37.793Z,48.40
2019-04-23T00:18:42.270Z,49.60
2019-04-23T00:21:28.380Z,48.90
2019-04-23T00:24:01.490Z,49.20
2019-04-23T00:26:30.635Z,49.40
2019-04-23T00:29:06.693Z,49.50
2019-04-23T00:34:01.118Z,50.30
2019-04-23T00:36:32.064Z,50.40
2019-04-23T00:38:54.050Z,50.20
2019-04-23T00:44:04.527Z,50.90
2019-04-23T00:49:07.437Z,51.40
2019-04-23T00:51:36.825Z,51.70
2019-04-23T00:54:05.937Z,51.80
2019-04-23T00:59:05.300Z,52.60
2019-04-23T01:01:42.983Z,52.80
2019-04-23T01:04:15.767Z,52.80
2019-04-23T01:06:39.083Z,53.10
2019-04-23T01:09:12.078Z,53.30
2019-04-23T01:11:39.156Z,53.60
2019-04-23T01:14:11.734Z,54.20
2019-04-23T01:16:37.538Z,54.60
2019-04-23T01:19:24.657Z,55.20
2019-04-23T01:21:34.771Z,55.30
2019-04-23T01:24:24.973Z,56.00
2019-04-23T01:30:04.782Z,57.00
2019-04-23T01:32:35.042Z,57.20
2019-04-23T01:35:15.174Z,57.80
2019-04-23T01:37:36.868Z,57.80
2019-04-23T01:40:04.086Z,58.00
2019-04-23T01:42:40.719Z,58.50
2019-04-23T01:45:15.362Z,59.30
2019-04-23T01:47:40.652Z,59.30
2019-04-23T01:50:13.947Z,60.00
2019-04-23T01:52:50.583Z,60.00
2019-04-23T01:55:15.464Z,60.90
2019-04-23T01:57:46.599Z,61.70
2019-04-23T02:00:16.744Z,62.20
2019-04-23T02:02:49.974Z,62.80
2019-04-23T02:07:50.918Z,64.60
2019-04-23T02:10:20.500Z,64.90
2019-04-23T02:12:49.926Z,65.80
2019-04-23T02:15:16.920Z,66.40
2019-04-23T02:17:53.231Z,67.30
2019-04-23T02:20:22.024Z,67.90
2019-04-23T02:23:13.691Z,68.60
2019-04-23T02:25:50.501Z,68.90
2019-04-23T02:28:12.316Z,69.60
2019-04-23T02:31:15.369Z,70.30
2019-04-23T02:33:28.688Z,70.90
2019-04-23T02:40:59.355Z,73.20
2019-04-23T02:45:59.028Z,74.70
2019-04-23T02:50:42.601Z,76.30
2019-04-23T02:53:47.247Z,77.50
2019-04-23T03:01:19.512Z,79.50
2019-04-23T03:05:57.247Z,80.20
2019-04-23T03:13:37.611Z,82.00
2019-04-23T03:19:02.605Z,83.20
2019-04-23T03:21:33.406Z,83.60
2019-04-23T03:24:17.158Z,84.70
2019-04-23T03:29:10.736Z,85.10
2019-04-23T03:35:14.685Z,86.10
2019-04-23T03:39:05.421Z,86.90
2019-04-23T03:41:43.931Z,87.40
2019-04-23T03:44:06.622Z,88.00
2019-04-23T03:46:39.931Z,88.20
2019-04-23T03:49:05.497Z,88.70
2019-04-23T03:51:42.411Z,88.60
2019-04-23T03:54:26.189Z,89.00
2019-04-23T03:56:54.368Z,89.00
2019-04-23T03:59:20.418Z,88.70
2019-04-23T04:01:45.297Z,89.50
2019-04-23T04:04:24.772Z,89.70
2019-04-23T04:06:48.246Z,90.00
2019-04-23T04:11:52.210Z,89.60
2019-04-23T04:14:36.371Z,89.40
2019-04-23T04:19:32.434Z,90.10
2019-04-23T04:21:58.498Z,89.90
2019-04-23T04:39:49.739Z,90.30
2019-04-23T04:42:12.241Z,90.10
2019-04-23T04:44:43.371Z,89.80
2019-04-23T04:47:32.267Z,90.20
2019-04-23T04:49:54.705Z,90.10
2019-04-23T04:54:24.235Z,90.00
2019-04-23T04:59:50.779Z,90.30
2019-04-23T05:04:48.319Z,90.00
2019-04-23T05:07:24.255Z,89.20
2019-04-23T05:12:18.949Z,89.70
2019-04-23T05:14:52.834Z,90.10
2019-04-23T05:17:42.378Z,90.10
2019-04-23T05:20:04.946Z,90.30
2019-04-23T05:22:42.711Z,90.00
2019-04-23T05:24:57.221Z,90.00
2019-04-23T05:27:37.548Z,90.00
2019-04-23T05:30:10.839Z,90.30
2019-04-23T05:32:39.447Z,89.10
2019-04-23T05:35:09.976Z,89.20
2019-04-23T05:37:50.444Z,89.30
2019-04-23T05:40:24.132Z,89.40
2019-04-23T05:45:29.781Z,87.60
2019-04-23T05:47:47.468Z,87.70
2019-04-23T05:50:26.045Z,87.30
2019-04-23T05:55:13.266Z,86.30
2019-04-23T05:57:44.632Z,85.90
2019-04-23T06:00:24.776Z,85.60
2019-04-23T06:02:57.184Z,86.30
2019-04-23T06:05:41.214Z,85.40
2019-04-23T06:10:19.756Z,85.00
2019-04-23T06:12:55.808Z,85.10
2019-04-23T06:15:29.098Z,84.60
2019-04-23T06:17:56.138Z,83.60
2019-04-23T06:20:32.875Z,84.10
2019-04-23T06:23:01.052Z,83.30
2019-04-23T06:25:42.216Z,84.00
2019-04-23T06:28:03.509Z,82.80
2019-04-23T06:30:35.227Z,81.50
2019-04-23T06:33:04.258Z,81.40
2019-04-23T06:35:31.995Z,80.90
2019-04-23T06:43:15.035Z,80.40
2019-04-23T06:45:40.432Z,80.70
2019-04-23T06:48:15.542Z,78.40
2019-04-23T06:50:54.530Z,78.30
2019-04-23T06:53:05.191Z,80.40
2019-04-23T06:55:49.193Z,78.70
2019-04-23T06:58:23.967Z,75.70
2019-04-23T07:00:48.857Z,76.30
2019-04-23T07:03:27.743Z,77.10
2019-04-23T07:06:19.084Z,75.20
2019-04-23T07:09:03.219Z,76.40
2019-04-23T07:11:33.818Z,74.60
2019-04-23T07:13:55.818Z,75.10
2019-04-23T07:19:39.387Z,73.40
2019-04-23T07:22:14.884Z,72.40
2019-04-23T07:24:40.548Z,72.90
2019-04-23T07:27:01.306Z,71.90
2019-04-23T07:29:47.105Z,72.70
2019-04-23T07:32:05.297Z,72.70
2019-04-23T07:34:46.937Z,71.90
2019-04-23T07:37:22.820Z,71.70
2019-04-23T07:40:11.016Z,71.20
2019-04-23T07:45:24.344Z,69.30
2019-04-23T07:50:44.175Z,69.50
2019-04-23T07:53:22.866Z,68.50
2019-04-23T07:58:21.255Z,68.60
2019-04-23T08:00:47.249Z,67.50
2019-04-23T08:05:44.011Z,65.80
2019-04-23T08:08:12.196Z,66.40
2019-04-23T08:11:25.905Z,65.10
2019-04-23T08:13:41.232Z,66.00
2019-04-23T08:16:15.303Z,66.10
2019-04-23T08:18:39.820Z,65.30
2019-04-23T08:21:10.646Z,64.90
2019-04-23T08:23:55.495Z,65.30
2019-04-23T08:26:59.644Z,66.00
2019-04-23T08:29:27.710Z,65.20
2019-04-23T08:32:10.659Z,64.20
2019-04-23T08:39:42.150Z,65.30
2019-04-23T08:42:28.736Z,62.90
2019-04-23T08:45:05.372Z,61.10
2019-04-23T08:47:22.891Z,64.10
2019-04-23T08:49:51.845Z,61.80
2019-04-23T08:52:25.207Z,61.50
2019-04-23T08:57:29.277Z,62.30
2019-04-23T08:59:55.968Z,62.00
2019-04-23T09:05:02.491Z,60.00
2019-04-23T09:07:29.772Z,59.60
2019-04-23T09:10:04.487Z,60.40
2019-04-23T09:12:35.317Z,59.80
2019-04-23T09:15:09.979Z,59.70
2019-04-23T09:17:42.612Z,59.40
2019-04-23T09:22:34.716Z,59.90
2019-04-23T09:25:18.527Z,60.00
2019-04-23T09:27:41.881Z,60.40
2019-04-23T09:30:07.986Z,60.50
2019-04-23T09:32:58.870Z,59.60
2019-04-23T09:35:27.531Z,61.40
2019-04-23T09:38:12.400Z,57.60
2019-04-23T09:41:09.908Z,59.10
2019-04-23T09:43:55.578Z,57.90
2019-04-23T09:46:36.441Z,59.00
2019-04-23T09:51:47.210Z,56.00
2019-04-23T09:54:27.046Z,55.30
2019-04-23T09:56:42.860Z,55.30
2019-04-23T09:59:15.718Z,56.20
2019-04-23T10:01:43.360Z,54.00
2019-04-23T10:03:59.008Z,56.30
2019-04-23T10:06:22.705Z,56.60
2019-04-23T10:08:53.581Z,55.90
2019-04-23T10:11:19.965Z,55.20
2019-04-23T10:13:50.341Z,55.00
2019-04-23T10:16:23.361Z,55.80
2019-04-23T10:18:51.181Z,55.90
2019-04-23T10:21:21.462Z,54.80
2019-04-23T10:23:51.665Z,54.20
2019-04-23T10:26:21.835Z,54.50
2019-04-23T10:28:58.265Z,54.10
2019-04-23T10:31:27.408Z,52.20
2019-04-23T10:33:58.020Z,53.50
2019-04-23T10:36:29.540Z,54.00
2019-04-23T10:39:03.524Z,53.80
2019-04-23T10:41:30.597Z,53.30
2019-04-23T10:44:07.031Z,51.70
2019-04-23T10:47:46.757Z,52.90
2019-04-23T10:50:39.975Z,52.70
2019-04-23T10:53:21.453Z,50.80
2019-04-23T10:55:58.855Z,52.70
2019-04-23T11:00:53.144Z,50.90
2019-04-23T11:03:43.659Z,51.10
2019-04-23T11:05:59.027Z,49.10
2019-04-23T11:08:23.991Z,51.20
2019-04-23T11:11:03.585Z,50.20
2019-04-23T11:16:41.965Z,49.70
2019-04-23T11:18:52.167Z,50.90
2019-04-23T11:21:20.779Z,49.90
2019-04-23T11:23:50.117Z,51.30
2019-04-23T11:26:32.750Z,50.10
2019-04-23T11:28:59.763Z,49.70
2019-04-23T11:31:43.098Z,50.20
2019-04-23T11:34:19.971Z,48.60
2019-04-23T11:39:30.913Z,49.90
2019-04-23T11:47:42.410Z,47.80
2019-04-23T11:52:32.839Z,48.10
2019-04-23T11:54:53.647Z,48.60
2019-04-23T11:59:59.501Z,47.10
2019-04-23T12:02:59.190Z,48.80
2019-04-23T12:06:12.387Z,48.00
2019-04-23T12:09:17.419Z,48.00
2019-04-23T12:20:02.885Z,44.80
2019-04-23T12:22:54.452Z,46.70
2019-04-23T12:25:51.593Z,44.90
2019-04-23T12:31:47.681Z,46.90
2019-04-23T12:34:35.737Z,47.20
2019-04-23T12:37:04.224Z,46.00
2019-04-23T12:39:42.489Z,44.80
2019-04-23T12:42:34.463Z,46.00
2019-04-23T12:44:46.186Z,46.20
2019-04-23T12:47:25.394Z,47.80
2019-04-23T12:50:37.731Z,47.10
2019-04-23T12:53:03.612Z,44.80
2019-04-23T13:00:59.052Z,45.90
2019-04-23T13:03:33.047Z,45.00
2019-04-23T13:06:04.107Z,46.80
2019-04-23T13:08:46.128Z,43.40
2019-04-23T13:11:17.616Z,43.90
2019-04-23T13:13:54.499Z,45.10
2019-04-23T13:16:59.004Z,44.10
2019-04-23T13:19:06.202Z,43.70
2019-04-23T13:21:51.306Z,44.10
2019-04-23T13:24:26.022Z,44.60
2019-04-23T13:27:01.213Z,45.40
2019-04-23T13:29:56.859Z,45.70
2019-04-23T13:32:31.078Z,45.70
2019-04-23T13:37:57.176Z,43.50
2019-04-23T13:40:24.387Z,45.20
2019-04-23T13:43:01.436Z,44.40
2019-04-23T13:45:59.671Z,44.60
2019-04-23T13:48:14.795Z,44.80
2019-04-23T13:51:35.848Z,44.40
2019-04-23T13:54:06.114Z,46.40
2019-04-23T13:57:44.015Z,44.60
2019-04-23T14:00:28.656Z,47.10
2019-04-23T14:05:45.363Z,45.60
2019-04-23T14:08:22.906Z,44.50
2019-04-23T14:11:13.435Z,45.30
2019-04-23T14:14:38.476Z,44.90
2019-04-23T14:17:05.017Z,45.80
2019-04-23T14:19:28.343Z,45.90
2019-04-23T14:22:45.065Z,45.50
2019-04-23T14:25:07.889Z,45.70
2019-04-23T14:28:13.912Z,44.90
2019-04-23T14:30:46.411Z,45.40
2019-04-23T14:33:37.931Z,44.10
2019-04-23T14:36:07.696Z,44.00
2019-04-23T14:38:41.136Z,43.30
2019-04-23T14:48:51.722Z,45.70
2019-04-23T14:51:32.148Z,46.40
2019-04-23T14:53:48.344Z,45.60
2019-04-23T15:01:27.462Z,44.80
2019-04-23T15:03:49.369Z,42.60
2019-04-23T15:11:47.907Z,41.90
2019-04-23T15:13:55.198Z,42.40
2019-04-23T15:19:33.902Z,42.50
2019-04-23T15:29:08.529Z,44.70
2019-04-23T15:31:59.209Z,44.30
2019-04-23T15:42:04.921Z,43.50
2019-04-23T15:44:41.923Z,42.60
2019-04-23T15:47:09.003Z,42.80
2019-04-23T15:49:30.462Z,43.00
2019-04-23T15:54:37.161Z,43.60
2019-04-23T15:56:59.543Z,43.80
2019-04-23T16:01:41.951Z,44.50
2019-04-23T16:04:08.764Z,43.60
2019-04-23T16:06:38.950Z,43.70
2019-04-23T16:09:28.384Z,44.70
2019-04-23T16:11:58.914Z,45.90
2019-04-23T16:14:47.873Z,45.40
2019-04-23T16:17:18.757Z,45.20
2019-04-23T16:20:06.051Z,45.00
2019-04-23T16:22:24.757Z,45.10
2019-04-23T16:25:03.602Z,44.70
2019-04-23T16:27:21.581Z,44.90
2019-04-23T16:33:10.184Z,46.80
2019-04-23T16:35:32.964Z,45.80
2019-04-23T16:38:14.139Z,46.00
2019-04-23T16:43:07.071Z,45.70
2019-04-23T16:45:45.728Z,46.40
2019-04-23T16:48:07.711Z,47.10
2019-04-23T16:50:41.732Z,47.80
2019-04-23T16:53:11.208Z,47.80
2019-04-23T16:58:17.143Z,48.50
2019-04-23T17:00:38.301Z,48.10
2019-04-23T17:03:11.255Z,48.80
2019-04-23T17:05:46.570Z,49.00
2019-04-23T17:08:36.183Z,48.70
2019-04-23T17:10:42.853Z,49.50
2019-04-23T17:15:55.134Z,48.70
2019-04-23T17:18:17.362Z,49.20
2019-04-23T17:20:46.728Z,49.10
2019-04-23T17:23:28.962Z,49.70
2019-04-23T17:25:49.068Z,50.10
2019-04-23T17:28:18.354Z,50.20
2019-04-23T17:31:05.215Z,50.60
2019-04-23T17:33:27.579Z,51.20
2019-04-23T17:36:21.057Z,52.10
2019-04-23T17:38:49.614Z,51.90
2019-04-23T17:44:18.873Z,51.80
2019-04-23T17:46:42.727Z,53.00
2019-04-23T17:49:15.316Z,53.50
2019-04-23T17:51:44.791Z,53.10
2019-04-23T18:01:57.200Z,53.80
2019-04-23T18:04:20.659Z,54.00
2019-04-23T18:07:05.385Z,54.40
2019-04-23T18:09:25.586Z,53.80
2019-04-23T18:11:54.298Z,54.40
2019-04-23T18:14:18.085Z,54.70
2019-04-23T18:24:59.386Z,55.50
2019-04-23T18:27:27.519Z,55.70
2019-04-23T18:30:11.003Z,56.40
2019-04-23T18:33:38.249Z,55.90
2019-04-23T18:38:05.454Z,56.20
2019-04-23T18:40:55.199Z,57.20
2019-04-23T18:43:13.708Z,56.80
2019-04-23T18:45:46.808Z,57.00
2019-04-23T18:56:06.579Z,57.70
2019-04-23T18:58:48.592Z,57.80
2019-04-23T19:01:05.131Z,58.20
2019-04-23T19:06:41.214Z,58.30
2019-04-23T19:10:12.126Z,58.60
2019-04-23T19:15:06.136Z,59.10
2019-04-23T19:17:46.566Z,59.20
2019-04-23T19:20:01.083Z,59.30
2019-04-23T19:22:43.213Z,59.90
2019-04-23T19:25:05.804Z,60.40
2019-04-23T19:30:39.738Z,60.10
2019-04-23T19:33:21.959Z,60.20
2019-04-23T19:40:51.750Z,60.90
2019-04-23T19:43:19.523Z,61.40
2019-04-23T19:45:55.691Z,61.00
2019-04-23T19:50:57.326Z,61.50
2019-04-23T19:53:29.691Z,62.30
2019-04-23T19:56:05.154Z,62.20
2019-04-23T19:58:31.964Z,62.30
2019-04-23T20:03:48.691Z,62.60
2019-04-23T20:06:08.153Z,63.10
2019-04-23T20:10:57.414Z,63.00
2019-04-23T20:13:37.712Z,63.60
2019-04-23T20:18:41.953Z,64.10
2019-04-23T20:20:59.359Z,64.10
2019-04-23T20:23:58.679Z,64.40
2019-04-23T20:32:29.098Z,65.20
2019-04-23T20:39:08.163Z,66.10
2019-04-23T20:42:07.898Z,66.60
2019-04-23T20:44:37.365Z,66.90
2019-04-23T20:47:01.914Z,67.60
2019-04-23T20:49:28.275Z,67.30
2019-04-23T20:52:00.134Z,68.10
2019-04-23T20:54:42.120Z,68.40
2019-04-23T20:57:43.046Z,68.70
2019-04-23T21:00:24.074Z,68.20
2019-04-23T21:03:41.506Z,69.10
2019-04-23T21:05:33.342Z,69.40
2019-04-23T21:08:38.839Z,69.80
2019-04-23T21:11:01.357Z,69.60
2019-04-23T21:14:30.087Z,70.20
2019-04-23T21:16:50.810Z,70.60
2019-04-23T21:20:03.439Z,71.20
2019-04-23T21:22:49.029Z,71.20
2019-04-23T21:25:44.481Z,71.30
2019-04-23T21:28:54.039Z,71.50
2019-04-23T21:31:32.798Z,71.90
2019-04-23T21:34:19.461Z,72.30
2019-04-23T21:37:10.941Z,72.90
2019-04-23T21:40:04.633Z,73.30
2019-04-23T21:51:24.451Z,74.10
2019-04-23T21:56:48.618Z,74.90
2019-04-23T21:59:50.577Z,74.40
2019-04-23T22:02:38.459Z,74.60
2019-04-23T22:05:47.911Z,75.90
2019-04-23T22:08:27.143Z,75.00
2019-04-23T22:11:37.658Z,75.20
2019-04-23T22:21:47.459Z,76.20
2019-04-23T22:24:32.147Z,76.50
2019-04-23T22:27:32.823Z,76.90
2019-04-23T22:30:45.920Z,76.70
2019-04-23T22:33:07.129Z,76.70
2019-04-23T22:35:24.289Z,77.10
2019-04-23T22:40:49.744Z,77.40
2019-04-23T22:43:35.902Z,77.60
2019-04-23T22:45:52.671Z,78.30
2019-04-23T22:48:20.625Z,78.20
2019-04-23T22:50:57.558Z,78.00
2019-04-23T22:53:13.808Z,78.70
2019-04-23T22:59:01.993Z,79.00
2019-04-23T23:01:26.157Z,79.30
2019-04-23T23:04:20.293Z,78.70
2019-04-23T23:07:02.835Z,79.20
2019-04-23T23:09:25.324Z,79.20
2019-04-23T23:11:57.860Z,78.90
2019-04-23T23:14:27.623Z,79.20
2019-04-23T23:16:57.214Z,79.40
2019-04-23T23:19:42.678Z,80.00
2019-04-23T23:24:47.864Z,80.00
2019-04-23T23:27:29.951Z,80.00
2019-04-23T23:30:00.034Z,79.90
2019-04-23T23:37:19.135Z,80.20
2019-04-23T23:39:57.625Z,80.40
2019-04-23T23:42:15.789Z,80.60
2019-04-23T23:45:01.955Z,80.80
2019-04-23T23:47:38.074Z,80.90
2019-04-23T23:50:01.305Z,80.60
2019-04-23T23:52:34.968Z,80.70
2019-04-23T23:55:01.755Z,81.20
2019-04-23T23:57:26.492Z,81.50
